Airfield :
LOGIN :

Register | Disclaimer

   EN    FR    IT 

 










Legend :    VFR   Marginal VFR   IFR   Intensive IFR   Very Intensive IFR
Visi :
Ceiling :
>= 8 km
>= 3000ft
5 to 8 km
1000 to 3000 ft
1500m to 5 km
500 to 1000 ft
800 to 1500m
200 to 500 ft
< 800m
< 200 ft
Symbols :   Thunderstorms  Fog  Heavy snow  Heavy precipitations  Wind > 20 kt
SIGMETs :     Misc.  Thunderstorms  Icing  Turbulence  Mountain Waves  Volcanic Ashes







- Airport Elevation : 33 ft
- IATA code : MHZ


EGUN - RAF Mildenhall

CURRENT METAR :
  • 151520Z AUTO 34012G18KT 9999 FEW014 FEW024 SCT029 05/05 A2954 RMK AO2 RAB1458E15 SLP007 $

EXPIRED METARs :
  • 151508Z AUTO 34013KT 9999 -RA SCT015 BKN026 05/05 A2953 RMK AO2 RAB1458 CIG 015V026 SLP003 $
  • 151458Z 34015G22KT 9999 -RA BKN015 OVC021 05/05 A2952 RMK AO2A RAB58 SLP000 $
  • 151440Z AUTO 34010KT 9999 BKN016 05/05 A2952 RMK AO2 RAB04E21RAB30E40 CIG 016V023 BKN V SCT SLP000 $
  • 151430Z AUTO 34011KT 9999 -RA SCT016 BKN023 BKN028 BKN040 05/05 A2951 RMK AO2 RAB04E21RAB30 CIG 021V031 SLP997 $
  • 151421Z AUTO 34011G19KT 9999 SCT016 BKN021 BKN038 BKN085 05/05 A2950 RMK AO2 RAB04E21 SLP993 $
  • 151404Z AUTO 34013G20KT 9999 -RA BKN016 05/05 A2950 RMK AO2 RAB04 SLP993 $
  • 151353Z AUTO 33012KT 9999 BKN016 04/04 A2949 RMK AO2 RAE09RAB11E53 BKN V OVC SLP990 $
  • 151316Z AUTO 33013G19KT 9999 -RA BKN015 04/04 A2947 RMK AO2 RAE09RAB11 CIG 011V018 SLP983 $
  • 151309Z AUTO 33012G19KT 9999 BKN014 OVC021 04/04 A2947 RMK AO2 RAE09 SLP983 $

TAF AMD TAF EGUN
Valid from the 15 at 15:00 until the 16 at 18:00 UTC


151528Z 1515/1618 34015G25KT 9000 -SHRA BKN020 620808 QNH2937INS
TEMPO 1515/1517 34010G15KT BKN015
BECMG 1517/1518 34015G25KT 9999 NSW BKN020 620808 QNH2991INS
BECMG 1606/1607 34010G15KT 9999 SCT040 QNH2985INS
BECMG 1609/1610 30012G18KT 9999 FEW020 FEW050 QNH2998INS TX06/1515Z TNM01/1608Z
No reported NOTAMs for that airfield.



MET'MAP, your aeronautical weather chart ! - Copyright ORBIFLY December 2007 - Disclaimer

ORBIFLY MET'MAP TEAM :

Programming & Development : Alexandra Zaïnal
Concept & Development : Baudouin d'Aumeries
Co-Development & Prog : Marc-Olivier Méhu
Technical & hardware support : Manuel Goepfert

Contact : metmap@orbifly.com




SOURCES & CREDITS :

   NOAA